Mingus, TX (76463)

10:22 PM CDT on July 28, 2016 (GMT -0500)
Unnamed Road | | Change Station

Elev 1177 ft 32.63 °N, 98.49 °W | Updated 8 minutes ago

Clear
Clear
84.6 °F
Feels Like 90 °F
N
1.9
Wind Variable Wind from NNW
Gusts 3.7 mph

Today
High -- | Low -- °F
--% Chance of Precip.
Yesterday
High -- | Low -- °F
Precip. -- in
Pressure 29.91 in
Visibility 10.0 miles
Clouds Clear
Heat Index 90 °F
Dew Point 72 °F
Humidity 66%
Rainfall 0.00 in
Snow Depth Not available.
6:45 AM 8:34 PM
Waning Crescent, 26% visible
METAR KMWL 290253Z AUTO 15009KT 10SM CLR 25/22 A2995 RMK AO2 SLP128 60030 T02500217 50019
Pressure 29.91 in
Visibility 10.0 miles
Clouds Clear
Heat Index 90 °F
Dew Point 72 °F
Humidity 66%
Rainfall 0.00 in
Snow Depth Not available.
6:45 AM 8:34 PM
Waning Crescent, 26% visible
METAR KMWL 290253Z AUTO 15009KT 10SM CLR 25/22 A2995 RMK AO2 SLP128 60030 T02500217 50019

10-Day Weather Forecast

Almanac

Astronomy

Jul. 28, 2016 Rise Set
Actual Time
Civil Twilight
Nautical Twilight
Astronomical Twilight
Moon
Length of Visible Light
Length of Day
Tomorrow will be .
, % of the Moon is Illuminated

Today's Extremes

State Highs State Lows

Community

WunderPhotos

Upload Photos

1,928,282 photos uploaded!

WunderBlog® & News

Nearby

Air Quality

  Air Quality AQ Index Pollutant
Not available.

Snow Depth

Station Depth Elevation

Earthquake Activity

City Distance Mag. Time & Date
Minimum magnitude displayed is 2.5.

Coastal Water Temperatures

Place Temperature

Stations

Nearby Weather Stations

Station Location Temp. Windchill Dew Point Humidity Wind Precip. Elev Updated Type
                   

Watches & Warnings

There are currently no watches in effect.